Latest Weather Observations for Cape Bruny AWS

IDT60901

Issued at 4:31 pm EST Monday 3 August 2015 (issued every 10 minutes, with the page automatically refreshed every 10 minutes)

About weather observations | Map of Hobart area stations | Latest observations for Hobart area | Other Formats
Station Details ID: 094198 Name: CAPE BRUNY (CAPE BRUNY) Lat: -43.49 Lon: 147.14 Height: 59.7 m
Data from the previous 72 hours. | See also: Recent months at Cape Bruny AWS
Date/Time
EST
Tmp

°C
App
Tmp
°C
Dew
Point
°C
Rel
Hum
%
Delta-T

°C
Wind Press
QNH
hPa
Press
MSL
hPa
Rain
since
9 am
mm
Dir
 
Spd
km/h
Gust
km/h
Spd
kts
Gust
kts
03/04:30pm 5.3 -2.0 2.5 82 1.1 SW 30 54 16 29 1010.2 1010.3 1.8
03/04:04pm 6.0 -2.9 2.8 80 1.3 SW 39 59 21 32 1009.2 1009.3 1.2
03/04:00pm 5.8 -3.1 3.0 82 1.2 SW 39 56 21 30 1009.2 1009.3 1.2
03/03:30pm 6.7 -5.1 2.6 75 1.7 SW 54 74 29 40 1008.2 1008.3 1.2
03/03:00pm 6.4 -4.7 2.7 77 1.5 SW 50 76 27 41 1006.8 1006.9 1.2
03/02:30pm 6.0 -4.7 2.5 78 1.4 SW 48 78 26 42 1005.6 1005.6 1.0
03/02:00pm 7.6 -3.6 1.7 66 2.4 WSW 50 74 27 40 1004.5 1004.5 1.0
03/01:33pm 6.1 -3.7 2.0 75 1.7 SW 43 61 23 33 1004.0 1004.0 1.0
03/01:30pm 6.8 -3.6 1.9 71 2.0 SW 46 61 25 33 1004.0 1004.0 1.0
03/01:00pm 5.5 -3.5 2.5 81 1.2 WSW 39 63 21 34 1003.4 1003.4 1.0
03/12:58pm 5.4 -4.0 2.6 82 1.1 WSW 41 78 22 42 1003.3 1003.3 0.8
03/12:54pm 5.0 -6.2 1.8 80 1.3 WSW 50 78 27 42 1003.5 1003.5 0.8
03/12:30pm 7.3 -5.1 1.2 65 2.5 WSW 56 74 30 40 1002.4 1002.4 0.8
03/12:00pm 8.0 -4.4 2.5 68 2.3 WSW 57 76 31 41 1001.4 1001.5 0.8
03/11:30am 5.5 -7.9 1.2 74 1.7 WSW 61 83 33 45 1001.0 1001.1 0.8
03/11:00am 5.5 -5.8 1.2 74 1.7 W 50 85 27 46 1000.6 1000.7 0.6
03/10:58am 6.0 -4.4 1.9 75 1.7 W 46 65 25 35 1000.5 1000.6 0.6
03/10:30am 5.6 -6.1 1.3 74 1.7 W 52 65 28 35 999.9 1000.0 0.6
03/10:01am 3.9 -8.1 -1.1 70 1.8 W 52 78 28 42 999.4 999.5 0.6
03/10:00am 4.0 -7.9 -0.4 73 1.7 W 52 78 28 42 999.3 999.4 0.6
03/09:59am 4.5 -6.8 1.0 78 1.4 W 50 78 27 42 999.3 999.4 0.6
03/09:51am 4.2 -5.0 1.4 82 1.1 W 39 59 21 32 999.3 999.4 0.6
03/09:44am 4.0 -5.6 1.2 82 1.1 W 41 57 22 31 999.5 999.6 0.4
03/09:30am 3.5 -9.0 0.9 83 1.0 W 56 76 30 41 999.0 999.1 0.4
03/09:08am 4.8 -7.1 -0.2 70 1.9 W 52 70 28 38 998.3 998.4 0.0
03/09:00am 4.9 -6.6 -0.3 69 2.0 W 50 61 27 33 998.1 998.2 11.4
03/08:49am 4.6 -7.3 -0.4 70 1.9 W 52 69 28 37 998.1 998.2 11.4
03/08:34am 4.2 -10.2 -0.2 73 1.7 W 65 83 35 45 998.0 998.1 11.4
03/08:30am 4.6 -10.4 0.7 76 1.5 W 69 83 37 45 997.9 998.0 11.4
03/08:20am 4.9 -7.6 0.9 75 1.6 W 56 76 30 41 997.8 997.9 11.4
03/08:06am 4.3 -5.8 0.6 77 1.4 WNW 43 61 23 33 997.2 997.3 11.4
03/08:00am 3.8 -6.5 0.1 77 1.4 WNW 44 57 24 31 997.4 997.5 11.4
03/07:52am 3.5 -6.0 -0.7 74 1.5 WNW 39 57 21 31 997.2 997.3 11.4
03/07:37am 3.2 -7.2 -0.1 79 1.2 WNW 44 63 24 34 996.8 996.9 11.4
03/07:30am 4.2 -8.4 0.2 75 1.5 W 56 63 30 34 996.5 996.6 11.4
03/07:09am 4.2 -7.8 -1.2 68 2.0 W 52 70 28 38 996.1 996.2 11.4
03/07:00am 4.2 -8.0 0.2 75 1.5 W 54 65 29 35 996.1 996.2 11.2
03/06:39am 3.3 -6.0 0.5 82 1.1 WNW 39 57 21 31 995.8 995.9 11.2
03/06:30am 3.2 -6.1 0.6 83 1.0 W 39 54 21 29 995.8 995.9 11.2
03/06:19am 2.5 -6.1 0.2 85 0.9 WNW 35 54 19 29 995.4 995.5 11.2
03/06:00am 2.0 -8.7 0.1 87 0.7 WNW 46 61 25 33 995.4 995.5 11.2
03/05:59am 2.1 -9.0 0.2 87 0.7 WNW 48 61 26 33 995.5 995.6 11.2
03/05:35am 1.9 -9.2 0.1 88 0.7 WNW 48 82 26 44 995.5 995.6 10.8
03/05:30am 1.8 -7.7 -0.4 85 0.8 WNW 39 61 21 33 995.4 995.5 10.6
03/05:15am 2.1 -8.7 -0.3 84 0.9 WNW 46 61 25 33 994.8 994.9 10.6
03/05:13am 2.3 -9.2 -0.1 84 0.9 W 50 72 27 39 994.9 995.0 10.6
03/05:03am 2.8 -7.5 0.0 82 1.0 W 44 65 24 35 995.1 995.2 10.6
03/05:00am 2.9 -6.9 0.1 82 1.1 W 41 56 22 30 995.2 995.3 10.6
03/04:30am 3.3 -7.0 -0.9 74 1.5 W 43 52 23 28 993.9 994.0 10.6
03/04:08am 3.0 -5.1 -0.1 80 1.2 WNW 32 50 17 27 994.2 994.3 10.6
03/04:00am 3.0 -5.6 0.2 82 1.1 WNW 35 44 19 24 994.3 994.4 10.6
03/03:30am 2.3 -6.3 0.5 88 0.7 WNW 35 44 19 24 993.8 993.9 10.6
03/03:11am 2.1 -7.2 0.6 90 0.6 WNW 39 61 21 33 994.0 994.1 10.6
03/03:08am 2.3 -6.6 1.0 91 0.5 WNW 37 52 20 28 994.3 994.4 10.6
03/03:00am 2.3 -5.8 0.8 90 0.6 NW 33 41 18 22 993.9 994.0 10.4
03/02:39am 2.5 -5.6 0.9 89 0.6 WNW 33 54 18 29 993.9 994.0 10.4
03/02:30am 2.6 -5.3 1.1 90 0.6 WNW 32 46 17 25 993.8 993.9 10.2
03/02:07am 2.1 -6.9 0.3 88 0.7 NW 37 56 20 30 992.9 993.0 10.0
03/02:00am 2.3 -7.4 0.4 87 0.7 WNW 41 54 22 29 993.3 993.4 10.0
03/01:48am 2.8 -6.1 0.5 85 0.9 WNW 37 70 20 38 993.6 993.7 9.8
03/01:35am 2.3 -5.7 0.4 87 0.7 WNW 32 50 17 27 993.1 993.2 9.8
03/01:30am 2.3 -5.8 1.0 91 0.5 WNW 33 39 18 21 993.1 993.2 9.8
03/01:22am 2.1 -7.2 0.8 91 0.5 WNW 39 57 21 31 993.3 993.4 9.8
03/01:11am 2.1 -10.4 0.9 92 0.5 W 56 70 30 38 993.6 993.7 9.8
03/01:02am 2.5 -8.1 1.0 90 0.6 W 46 85 25 46 993.7 993.8 9.4
03/01:00am 3.0 -6.5 1.5 90 0.6 W 41 76 22 41 993.8 993.9 9.4
03/12:39am 2.8 -7.2 1.3 90 0.6 W 43 61 23 33 992.7 992.8 9.2
03/12:30am 2.9 -8.0 1.3 89 0.6 W 48 57 26 31 992.9 993.0 9.0
03/12:13am 2.6 -5.9 1.0 89 0.6 W 35 52 19 28 993.1 993.2 8.6
03/12:00am 3.3 -4.1 1.7 89 0.6 NW 30 41 16 22 992.9 993.0 8.0
 
Date/Time
EST
Tmp

°C
App
Tmp
°C
Dew
Point
°C
Rel
Hum
%
Delta-T

°C
Wind Press
QNH
hPa
Press
MSL
hPa
Rain
since
9 am
mm
Dir
 
Spd
km/h
Gust
km/h
Spd
kts
Gust
kts
02/11:33pm 2.9 -4.6 1.3 89 0.6 NW 30 48 16 26 992.8 992.9 7.8
02/11:30pm 3.0 -4.8 1.4 89 0.6 NW 32 48 17 26 992.7 992.8 7.8
02/11:00pm 3.0 -4.5 1.5 90 0.6 NW 30 37 16 20 992.5 992.6 7.8
02/10:30pm 2.8 -3.2 1.3 90 0.6 NNW 22 37 12 20 993.2 993.3 7.4
02/10:00pm 2.7 -3.6 1.4 91 0.5 NNW 24 33 13 18 992.7 992.8 6.6
02/09:30pm 2.8 -2.8 1.3 90 0.6 NNW 20 30 11 16 993.1 993.2 6.4
02/09:00pm 2.9 -3.1 1.3 89 0.6 NNW 22 32 12 17 993.3 993.4 6.4
02/08:30pm 3.3 -2.7 1.2 86 0.8 NNW 22 35 12 19 993.7 993.8 6.0
02/08:00pm 3.5 -4.6 0.9 83 1.0 NW 33 56 18 30 994.1 994.2 5.8
02/07:56pm 3.7 -4.2 0.9 82 1.1 NW 32 56 17 30 994.3 994.4 5.6
02/07:51pm 4.2 -4.3 1.1 80 1.2 NW 35 48 19 26 994.4 994.5 5.4
02/07:35pm 4.6 -2.2 0.6 75 1.5 NW 26 48 14 26 994.1 994.2 5.4
02/07:30pm 4.4 -2.5 0.4 75 1.5 NW 26 41 14 22 994.2 994.3 5.4
02/07:26pm 4.4 -3.6 0.2 74 1.6 NW 32 46 17 25 994.1 994.2 5.4
02/07:16pm 4.6 -4.4 0.4 74 1.6 NW 37 54 20 29 993.8 993.9 5.4
02/07:00pm 3.8 -3.0 0.8 81 1.2 NNW 26 39 14 21 993.7 993.8 5.4
02/06:30pm 3.2 -3.6 0.8 84 0.9 NW 26 39 14 21 994.1 994.2 5.4
02/06:25pm 3.6 -4.3 1.2 84 0.9 NW 32 50 17 27 994.1 994.2 5.4
02/06:09pm 3.5 -3.2 1.2 85 0.9 NNW 26 50 14 27 993.9 994.0 5.4
02/06:00pm 2.9 -2.8 0.6 85 0.9 NNW 20 30 11 16 994.4 994.5 5.4
02/05:30pm 3.8 -4.7 0.7 80 1.2 NW 35 46 19 25 994.2 994.3 5.4
02/05:09pm 4.3 -7.0 1.0 79 1.3 WNW 50 69 27 37 994.3 994.4 5.4
02/05:00pm 5.2 -6.8 1.3 76 1.6 W 54 69 29 37 994.0 994.1 5.4
02/04:49pm 4.8 -5.5 0.0 71 1.8 WNW 44 65 24 35 993.5 993.6 5.4
02/04:30pm 5.2 -4.8 1.3 76 1.5 WNW 43 56 23 30 993.1 993.2 5.4
02/04:05pm 5.5 -2.3 1.4 75 1.6 WNW 32 63 17 34 993.1 993.2 5.4
02/04:00pm 5.3 -2.6 1.1 74 1.7 NW 32 43 17 23 993.2 993.3 5.4
02/03:30pm 6.0 -1.9 1.2 71 1.9 WNW 32 41 17 22 993.3 993.4 5.4
02/03:00pm 5.8 -2.2 1.5 74 1.7 WNW 33 54 18 29 993.8 993.9 5.4
02/02:30pm 4.8 -4.3 2.0 82 1.1 NW 39 57 21 31 994.2 994.3 5.4
02/02:22pm 4.5 -3.8 1.9 83 1.0 NW 35 57 19 31 994.1 994.2 5.4
02/02:00pm 4.4 -3.9 2.1 85 0.9 NW 35 52 19 28 994.2 994.3 5.4
02/01:37pm 4.7 -2.1 2.9 88 0.7 NW 28 48 15 26 994.4 994.5 5.4
02/01:30pm 4.3 -2.6 2.3 87 0.8 NW 28 37 15 20 994.3 994.4 5.4
02/01:16pm 4.5 -0.8 3.0 90 0.6 W 20 30 11 16 994.3 994.4 5.2
02/01:02pm 4.2 -4.4 2.6 89 0.6 W 37 56 20 30 994.6 994.7 5.2
02/01:00pm 4.1 -4.9 2.3 88 0.7 W 39 56 21 30 994.6 994.7 5.2
02/12:35pm 4.9 -5.7 2.9 87 0.8 WNW 48 67 26 36 993.8 993.9 4.6
02/12:30pm 5.1 -4.6 3.1 87 0.8 WNW 43 57 23 31 993.9 994.0 4.4
02/12:00pm 5.5 -2.2 3.5 87 0.8 WNW 33 48 18 26 993.9 994.0 3.2
02/11:55am 5.3 -2.8 3.2 86 0.9 WNW 35 54 19 29 993.7 993.8 3.0
02/11:30am 6.9 -2.1 4.6 85 1.0 W 41 50 22 27 993.6 993.7 0.6
02/11:00am 9.2 0.6 4.4 72 2.1 WNW 39 57 21 31 993.8 993.9 0.2
02/10:30am 9.1 -2.5 3.7 69 2.4 WNW 54 74 29 40 993.2 993.3 0.0
02/10:00am 10.5 -1.0 2.4 57 3.5 WNW 52 72 28 39 993.1 993.2 0.0
02/09:30am 10.0 0.3 2.6 60 3.2 NW 43 67 23 36 993.6 993.7 0.0
02/09:00am 9.7 -1.5 2.1 59 3.2 NW 50 74 27 40 993.8 993.9 0.0
02/08:30am 9.5 -0.9 2.1 60 3.1 NW 46 67 25 36 994.3 994.4 0.0
02/08:00am 8.9 -0.9 2.3 63 2.8 NW 43 63 23 34 995.0 995.1 0.0
02/07:44am 8.9 -0.2 2.0 62 2.9 NW 39 57 21 31 995.1 995.2 0.0
02/07:30am 8.9 -0.1 2.3 63 2.8 NW 39 50 21 27 995.4 995.5 0.0
02/07:00am 8.9 0.2 1.8 61 3.0 NW 37 65 20 35 995.9 996.0 0.0
02/06:48am 8.9 0.5 1.8 61 3.0 NW 35 57 19 31 996.3 996.4 0.0
02/06:30am 8.6 0.7 2.4 65 2.6 NW 33 46 18 25 996.8 996.9 0.0
02/06:00am 8.5 1.6 2.5 66 2.5 NW 28 44 15 24 997.1 997.2 0.0
02/05:30am 8.6 2.7 2.0 63 2.7 NW 22 41 12 22 997.6 997.7 0.0
02/05:00am 8.2 3.2 1.6 63 2.7 NNW 17 32 9 17 998.2 998.3 0.0
02/04:30am 8.1 2.2 1.5 63 2.7 NNW 22 35 12 19 998.7 998.8 0.0
02/04:00am 8.3 0.8 1.0 60 3.0 NNW 30 44 16 24 999.1 999.2 0.0
02/03:36am 8.2 -1.4 1.4 62 2.8 NW 41 59 22 32 999.2 999.3 0.0
02/03:30am 8.3 -1.8 1.7 63 2.7 NW 44 59 24 32 999.2 999.3 0.0
02/03:07am 8.4 -1.2 0.9 59 3.0 NW 41 59 22 32 999.6 999.7 0.0
02/03:00am 8.1 -1.1 1.0 61 2.9 NW 39 54 21 29 999.8 999.9 0.0
02/02:30am 8.1 -1.8 1.5 63 2.7 NW 43 57 23 31 1000.2 1000.3 0.0
02/02:00am 8.4 -1.6 1.3 61 2.9 NW 43 59 23 32 1000.3 1000.4 0.0
02/01:30am 8.3 -1.7 1.2 61 2.9 NW 43 57 23 31 1000.7 1000.8 0.0
02/01:13am 8.2 0.3 1.1 61 2.9 NW 32 50 17 27 1001.2 1001.3 0.0
02/01:00am 8.2 1.4 0.9 60 3.0 NW 26 39 14 21 1001.6 1001.7 0.0
02/12:30am 8.0 1.6 1.0 61 2.8 NNW 24 37 13 20 1002.2 1002.2 0.0
02/12:00am 7.8 1.8 0.8 61 2.8 NW 22 41 12 22 1002.4 1002.4 0.0
 
Date/Time
EST
Tmp

°C
App
Tmp
°C
Dew
Point
°C
Rel
Hum
%
Delta-T

°C
Wind Press
QNH
hPa
Press
MSL
hPa
Rain
since
9 am
mm
Dir
 
Spd
km/h
Gust
km/h
Spd
kts
Gust
kts
01/11:30pm 7.4 1.7 0.8 63 2.6 NNW 20 35 11 19 1002.5 1002.5 0.0
01/11:00pm 6.7 1.5 0.4 64 2.5 N 17 28 9 15 1003.1 1003.1 0.0
01/10:30pm 6.2 2.1 -0.1 64 2.4 N 11 17 6 9 1003.2 1003.2 0.0
01/10:00pm 6.9 2.1 0.1 62 2.7 N 15 24 8 13 1003.9 1003.9 0.0
01/09:30pm 7.3 1.7 0.1 60 2.8 NNW 19 28 10 15 1004.2 1004.2 0.0
01/09:00pm 7.3 2.5 0.1 60 2.8 N 15 28 8 15 1004.2 1004.2 0.0
01/08:30pm 7.3 1.7 0.1 60 2.8 N 19 26 10 14 1004.4 1004.4 0.0
01/08:00pm 7.0 0.1 0.2 62 2.7 NW 26 35 14 19 1004.4 1004.4 0.0
01/07:30pm 7.1 0.6 0.1 61 2.7 NNW 24 33 13 18 1004.3 1004.3 0.0
01/07:00pm 6.5 1.0 0.6 66 2.3 NNW 19 26 10 14 1004.5 1004.5 0.0
01/06:30pm 6.2 0.4 0.1 65 2.4 NNW 20 33 11 18 1004.2 1004.2 0.0
01/06:00pm 6.3 -0.9 1.0 69 2.1 NW 28 39 15 21 1003.9 1003.9 0.0
01/05:30pm 6.6 -1.2 1.5 70 2.1 WNW 32 50 17 27 1003.9 1003.9 0.0
01/05:03pm 6.4 -3.1 1.5 71 2.0 NW 41 59 22 32 1003.8 1003.8 0.0
01/05:00pm 6.5 -3.6 1.4 70 2.1 NW 44 59 24 32 1003.8 1003.8 0.0
01/04:44pm 7.3 -2.3 1.4 66 2.4 WNW 41 65 22 35 1003.1 1003.1 0.0
01/04:42pm 7.4 -1.5 0.8 63 2.6 WNW 37 65 20 35 1003.1 1003.1 0.0
01/04:36pm 7.6 0.4 0.8 62 2.7 W 28 50 15 27 1003.1 1003.1 0.0
01/04:30pm 7.8 1.4 1.2 63 2.7 W 24 37 13 20 1003.2 1003.2 0.0
01/04:00pm 9.3 3.1 1.9 60 3.1 W 24 30 13 16 1003.0 1003.0 0.0
01/03:30pm 8.5 0.2 2.1 64 2.7 W 35 46 19 25 1002.8 1002.8 0.0
01/03:22pm 8.1 -3.1 1.7 64 2.6 W 50 63 27 34 1002.6 1002.6 0.0
01/03:07pm 8.5 -2.5 1.0 59 3.0 WNW 48 69 26 37 1002.3 1002.3 0.0
01/03:02pm 8.3 -1.0 0.8 59 3.0 WNW 39 59 21 32 1002.3 1002.3 0.0
01/03:00pm 8.5 -0.3 1.6 62 2.9 WNW 37 52 20 28 1002.6 1002.6 0.0
01/02:30pm 7.2 -2.3 1.5 67 2.3 WNW 41 65 22 35 1002.2 1002.2 0.0
01/02:09pm 7.7 -2.6 0.4 60 2.9 WNW 44 85 24 46 1001.5 1001.6 0.0
01/02:07pm 8.4 -1.3 0.4 57 3.2 WNW 41 67 22 36 1001.5 1001.6 0.0
01/02:00pm 8.7 -0.4 -0.6 52 3.7 WNW 37 52 20 28 1001.5 1001.6 0.0
01/01:49pm 9.4 -0.9 0.6 54 3.6 WNW 44 63 24 34 1001.3 1001.4 0.0
01/01:30pm 9.7 -0.5 0.9 54 3.6 WNW 44 56 24 30 1001.0 1001.1 0.0
01/01:00pm 9.2 -0.9 1.4 58 3.2 WNW 44 61 24 33 1000.9 1001.0 0.0
01/12:56pm 9.0 -1.1 0.5 55 3.4 WNW 43 61 23 33 1001.1 1001.2 0.0
01/12:30pm 8.6 -0.5 1.7 62 2.9 WNW 39 46 21 25 1000.9 1001.0 0.0
01/12:20pm 8.3 -0.8 2.1 65 2.6 WNW 39 57 21 31 1000.8 1000.9 0.0
01/12:11pm 8.3 -3.7 1.5 62 2.8 WNW 54 74 29 40 1001.0 1001.1 0.0
01/12:02pm 8.0 -4.0 1.4 63 2.7 W 54 85 29 46 1000.7 1000.8 0.0
01/12:00pm 7.6 -3.8 0.3 60 2.9 WNW 50 85 27 46 1000.5 1000.6 0.0
01/11:59am 7.7 -3.0 0.2 59 3.0 WNW 46 82 25 44 1000.6 1000.7 0.0
01/11:56am 8.3 -0.9 1.0 60 3.0 WNW 39 57 21 31 1000.8 1000.9 0.0
01/11:30am 7.1 -0.9 1.4 67 2.3 WNW 33 46 18 25 1000.9 1001.0 0.0
01/11:00am 6.8 -3.2 2.1 72 1.9 WNW 44 61 24 33 1001.1 1001.2 0.0
01/10:43am 6.5 -4.1 1.0 68 2.2 WNW 46 65 25 35 1000.7 1000.8 0.0
01/10:30am 6.9 -3.4 0.1 62 2.7 W 44 54 24 29 1000.7 1000.8 0.0
01/10:00am 7.3 -4.9 0.5 62 2.7 W 54 67 29 36 1000.1 1000.2 0.0
01/09:43am 6.6 -2.7 0.9 67 2.3 WNW 39 70 21 38 999.8 999.9 0.0
01/09:41am 6.6 -1.8 1.3 69 2.1 WNW 35 63 19 34 1000.0 1000.1 0.0
01/09:30am 6.2 -0.8 1.9 74 1.7 NW 28 41 15 22 999.7 999.8 0.0
01/09:00am 5.4 -1.1 2.6 82 1.2 W 26 37 14 20 999.2 999.3 3.4
01/08:51am 5.5 -3.5 2.2 79 1.3 W 39 50 21 27 999.3 999.4 3.4
01/08:30am 5.5 -3.6 1.8 77 1.5 WNW 39 57 21 31 998.5 998.6 3.4
01/08:28am 5.4 -3.3 1.7 77 1.5 NW 37 57 20 31 998.3 998.4 3.4
01/08:00am 4.4 -3.4 1.9 84 1.0 NW 32 39 17 21 998.3 998.4 3.4
01/07:32am 4.7 -4.3 2.2 84 1.0 WNW 39 57 21 31 998.2 998.3 3.4
01/07:30am 4.6 -4.1 2.1 84 1.0 WNW 37 52 20 28 998.2 998.3 3.4
01/07:11am 4.9 -3.3 2.9 87 0.8 W 35 54 19 29 998.3 998.4 3.2
01/07:00am 5.3 -1.4 3.5 88 0.8 W 28 35 15 19 997.9 998.0 2.8
01/06:38am 4.7 -3.5 2.7 87 0.8 WNW 35 50 19 27 997.1 997.2 2.6
01/06:30am 5.1 -3.4 3.3 88 0.7 W 37 46 20 25 997.2 997.3 2.4
01/06:17am 4.9 -3.3 2.6 85 0.9 W 35 54 19 29 997.3 997.4 2.0
01/06:09am 6.0 -1.6 3.7 85 1.0 W 33 43 18 23 997.4 997.5 1.2
01/06:00am 6.2 -1.5 3.5 83 1.1 WNW 33 44 18 24 997.0 997.1 1.0
01/05:33am 6.3 -2.9 3.6 83 1.1 NW 41 59 22 32 996.1 996.2 0.8
01/05:30am 6.4 -3.2 3.6 82 1.2 NW 43 59 23 32 996.2 996.3 0.8
01/05:00am 7.2 -1.4 4.5 83 1.2 NW 39 54 21 29 995.6 995.7 0.4
01/04:31am 8.1 -2.4 3.9 75 1.8 NW 48 67 26 36 994.6 994.7 0.0
01/04:30am 8.0 -2.9 3.7 74 1.9 NW 50 67 27 36 994.5 994.6 0.0
01/04:06am 8.8 -1.4 3.4 69 2.3 NW 46 67 25 36 994.0 994.1 0.0
01/04:00am 8.7 -0.1 3.5 70 2.3 NW 39 67 21 36 994.0 994.1 0.0
01/03:54am 8.4 0.7 3.5 71 2.1 NW 33 52 18 28 993.9 994.0 0.0
01/03:30am 9.0 1.2 3.0 66 2.6 NW 33 50 18 27 994.4 994.5 0.0
01/03:00am 9.5 1.2 2.4 61 3.0 NW 35 54 19 29 995.1 995.2 0.0
01/02:36am 9.8 2.8 1.9 58 3.3 NW 28 46 15 25 996.0 996.1 0.0
01/02:30am 9.6 3.4 2.0 59 3.2 NW 24 43 13 23 996.4 996.5 0.0
01/02:00am 9.0 3.5 2.1 62 2.9 NNW 20 33 11 18 996.8 996.9 0.0
01/01:30am 9.0 4.1 2.3 63 2.8 NNW 17 30 9 16 997.3 997.4 0.0
01/01:00am 7.8 4.1 2.3 68 2.3 NNE 11 20 6 11 997.9 998.0 0.0
01/12:30am 8.0 3.1 2.0 66 2.5 NNE 17 24 9 13 998.7 998.8 0.0
01/12:00am 8.0 3.5 2.3 67 2.4 NNE 15 22 8 12 1000.1 1000.2 0.0
 
Date/Time
EST
Tmp

°C
App
Tmp
°C
Dew
Point
°C
Rel
Hum
%
Delta-T

°C
Wind Press
QNH
hPa
Press
MSL
hPa
Rain
since
9 am
mm
Dir
 
Spd
km/h
Gust
km/h
Spd
kts
Gust
kts
31/11:30pm 8.4 3.0 2.2 65 2.6 N 20 32 11 17 1000.9 1001.0 0.0
31/11:00pm 8.2 3.3 1.8 64 2.7 N 17 28 9 15 1001.7 1001.8 0.0
31/10:30pm 8.1 3.2 1.7 64 2.6 N 17 24 9 13 1002.6 1002.6 0.0
31/10:00pm 7.8 3.6 1.9 66 2.4 NNE 13 20 7 11 1003.0 1003.0 0.0
31/09:30pm 8.3 3.0 1.7 63 2.7 N 19 33 10 18 1004.2 1004.2 0.0
31/09:00pm 8.3 3.0 1.9 64 2.7 N 19 26 10 14 1004.7 1004.8 0.0
31/08:30pm 8.3 2.8 1.9 64 2.7 NNW 20 32 11 17 1005.6 1005.7 0.0
31/08:00pm 8.4 3.1 2.0 64 2.7 N 19 33 10 18 1006.1 1006.2 0.0
31/07:30pm 8.1 2.6 2.1 66 2.5 NNW 20 32 11 17 1006.4 1006.5 0.0
31/07:00pm 8.0 2.7 1.8 65 2.6 NNW 19 32 10 17 1006.8 1006.9 0.0
31/06:30pm 8.3 2.8 2.1 65 2.6 NNW 20 30 11 16 1007.2 1007.3 0.0
31/06:00pm 7.9 2.1 2.4 68 2.3 NW 22 35 12 19 1007.3 1007.4 0.0
31/05:30pm 8.1 2.4 2.6 68 2.3 NW 22 32 12 17 1007.5 1007.6 0.0
31/05:00pm 8.0 1.9 2.5 68 2.3 NNW 24 37 13 20 1007.7 1007.8 0.0

Latest Capital City Observations: Canberra | Sydney | Melbourne | Brisbane | Adelaide | Perth | Hobart | Darwin

Other Formats:

Comma delimited format used in spreadsheet applications
http://www.bom.gov.au/fwo/IDT60901/IDT60901.95967.axf

JavaScript Object Notation format (JSON) in row-major order
http://www.bom.gov.au/fwo/IDT60901/IDT60901.95967.json